Time;durP1;ratioP1;P1;durP2;ratioP2;P2;SDS_P1;SDS_P2;PMS_P1;PMS_P2;Temp;Humidity;BMP_temperature;BMP_pressure;BME280_temperature;BME280_humidity;BME280_pressure;Samples;Min_cycle;Max_cycle;Signal;HPM_P1;HPM_P2
2023/08/07 00:00:31;;;;;;;4.77;1.60;;;16.90;99.90;;;;;;5109025;28;20459;-71
2023/08/07 00:02:57;;;;;;;4.47;1.63;;;16.80;99.90;;;;;;5106072;28;20411;-72
2023/08/07 00:05:22;;;;;;;4.73;1.40;;;16.80;99.90;;;;;;5108228;28;20457;-72
2023/08/07 00:07:48;;;;;;;4.50;1.20;;;16.80;99.90;;;;;;5105303;28;20400;-71
2023/08/07 00:10:14;;;;;;;3.15;1.20;;;16.80;99.90;;;;;;5108939;28;20408;-71
2023/08/07 00:12:40;;;;;;;4.80;1.42;;;16.80;99.90;;;;;;5105794;28;20400;-72
2023/08/07 00:15:06;;;;;;;3.25;1.40;;;16.80;99.90;;;;;;5109054;28;20762;-72
2023/08/07 00:17:32;;;;;;;4.68;1.48;;;16.80;99.90;;;;;;5105587;28;20424;-72
2023/08/07 00:19:57;;;;;;;6.77;1.70;;;16.80;99.90;;;;;;5100307;28;20487;-72
2023/08/07 00:22:23;;;;;;;5.90;1.83;;;16.70;99.90;;;;;;5100793;28;20872;-72
2023/08/07 00:24:49;;;;;;;4.93;1.70;;;16.70;99.90;;;;;;5105911;28;20405;-72
2023/08/07 00:27:14;;;;;;;4.67;1.90;;;16.70;99.90;;;;;;5105316;28;20792;-72
2023/08/07 00:29:40;;;;;;;4.35;2.03;;;16.70;99.90;;;;;;5089248;28;20410;-72
2023/08/07 00:32:06;;;;;;;7.03;2.50;;;16.60;99.90;;;;;;5099817;28;20400;-72
2023/08/07 00:34:32;;;;;;;7.05;2.40;;;16.70;99.90;;;;;;5104125;28;21048;-72
2023/08/07 00:36:58;;;;;;;4.60;1.87;;;16.60;99.90;;;;;;5104459;28;20483;-72
2023/08/07 00:39:24;;;;;;;5.00;1.60;;;16.60;99.90;;;;;;5104753;28;20405;-72
2023/08/07 00:41:49;;;;;;;3.50;1.40;;;16.50;99.90;;;;;;5094698;28;20471;-72
2023/08/07 00:44:15;;;;;;;4.88;1.42;;;16.40;99.90;;;;;;5096353;28;20423;-72
2023/08/07 00:46:41;;;;;;;2.47;0.90;;;16.30;99.90;;;;;;5095631;28;20405;-72
2023/08/07 00:49:09;;;;;;;2.75;1.00;;;16.30;99.90;;;;;;5109081;28;20401;-72
2023/08/07 00:51:36;;;;;;;1.70;0.83;;;16.20;99.90;;;;;;5107614;28;20462;-72
2023/08/07 00:54:04;;;;;;;5.70;1.10;;;16.10;99.90;;;;;;5088591;28;20405;-72
2023/08/07 00:56:31;;;;;;;2.63;1.20;;;16.10;99.90;;;;;;5100474;28;20469;-72
2023/08/07 00:59:00;;;;;;;4.10;1.52;;;16.00;99.90;;;;;;5103174;28;20502;-72
2023/08/07 01:01:26;;;;;;;3.28;1.38;;;16.10;99.90;;;;;;5101195;28;20883;-72
2023/08/07 01:03:52;;;;;;;3.80;1.50;;;16.10;99.90;;;;;;5100630;28;20408;-72
2023/08/07 01:06:17;;;;;;;5.43;1.90;;;16.10;99.90;;;;;;5101501;28;20901;-72
2023/08/07 01:08:44;;;;;;;4.23;1.67;;;16.10;99.90;;;;;;5107185;28;20396;-72
2023/08/07 01:11:30;;;;;;;4.57;1.75;;;16.10;99.90;;;;;;5104242;28;20890;-72
2023/08/07 01:14:05;;;;;;;4.03;1.65;;;16.10;99.90;;;;;;5090876;28;20416;-72
2023/08/07 01:16:55;;;;;;;4.93;1.73;;;16.10;99.90;;;;;;5102561;28;20408;-72
2023/08/07 01:19:26;;;;;;;4.27;2.00;;;16.10;99.90;;;;;;5102612;28;20886;-72
2023/08/07 01:22:10;;;;;;;5.60;2.10;;;16.10;99.90;;;;;;5096499;28;20436;-72
2023/08/07 01:24:37;;;;;;;6.00;2.25;;;16.10;99.90;;;;;;5098914;28;20497;-72
2023/08/07 01:27:12;;;;;;;6.87;2.10;;;16.10;99.90;;;;;;5089379;28;20469;-72
2023/08/07 01:29:51;;;;;;;4.65;1.73;;;16.00;99.90;;;;;;5085993;28;20398;-72
2023/08/07 01:32:24;;;;;;;5.30;1.85;;;16.00;99.90;;;;;;5097709;28;20495;-72
2023/08/07 01:34:51;;;;;;;5.20;1.85;;;16.10;99.90;;;;;;5096870;28;20397;-72
2023/08/07 01:37:18;;;;;;;4.68;1.90;;;16.10;99.90;;;;;;5096837;28;21180;-72
2023/08/07 01:39:44;;;;;;;5.13;2.15;;;16.00;99.90;;;;;;5096994;28;20397;-72
2023/08/07 01:42:10;;;;;;;5.90;2.00;;;16.00;99.90;;;;;;5088195;28;20502;-72
2023/08/07 01:44:37;;;;;;;5.47;1.85;;;16.00;99.90;;;;;;5096825;28;20776;-72
2023/08/07 01:47:02;;;;;;;8.55;2.10;;;16.00;99.90;;;;;;5091753;28;20409;-72
2023/08/07 01:49:28;;;;;;;3.42;1.92;;;15.90;99.90;;;;;;5097505;28;20390;-72
2023/08/07 01:51:54;;;;;;;4.70;1.97;;;15.90;99.90;;;;;;5071644;28;20410;-72
2023/08/07 01:54:19;;;;;;;4.38;1.70;;;15.80;99.90;;;;;;5097343;28;20452;-72
2023/08/07 01:56:45;;;;;;;5.20;1.83;;;15.80;99.90;;;;;;5100476;28;20950;-72
2023/08/07 01:59:10;;;;;;;7.47;2.10;;;15.80;99.90;;;;;;5097806;28;20405;-72
2023/08/07 02:01:36;;;;;;;4.22;1.70;;;15.70;99.90;;;;;;5101285;28;20942;-72
2023/08/07 02:04:02;;;;;;;4.73;2.40;;;15.70;99.90;;;;;;5081026;28;20426;-72
2023/08/07 02:06:27;;;;;;;6.03;2.05;;;15.70;99.90;;;;;;5086526;28;20925;-72
2023/08/07 02:08:53;;;;;;;5.63;1.90;;;15.70;99.90;;;;;;5092127;28;20905;-72
2023/08/07 02:11:18;;;;;;;6.83;2.53;;;15.70;99.90;;;;;;5096368;28;20394;-72
2023/08/07 02:13:44;;;;;;;6.80;2.80;;;15.70;99.90;;;;;;5097581;28;20869;-72
2023/08/07 02:16:10;;;;;;;5.30;2.60;;;15.70;99.90;;;;;;5103135;28;20400;-72
2023/08/07 02:18:35;;;;;;;7.78;2.70;;;15.70;99.90;;;;;;5105779;28;20754;-72
2023/08/07 02:21:01;;;;;;;7.47;2.70;;;15.70;99.90;;;;;;5090172;28;20464;-72
2023/08/07 02:23:28;;;;;;;5.87;3.00;;;15.70;99.90;;;;;;5104219;28;20400;-72
2023/08/07 02:25:54;;;;;;;6.70;3.10;;;15.70;99.90;;;;;;5101260;28;20483;-72
2023/08/07 02:28:20;;;;;;;5.57;2.80;;;15.70;99.90;;;;;;5098574;28;20555;-72
2023/08/07 02:30:50;;;;;;;8.18;3.45;;;15.70;99.90;;;;;;5098351;28;20746;-72
2023/08/07 02:33:16;;;;;;;4.88;2.83;;;15.70;99.90;;;;;;5104396;28;20426;-72
2023/08/07 02:35:42;;;;;;;7.07;3.03;;;15.70;99.90;;;;;;5101832;28;20402;-71
2023/08/07 02:38:07;;;;;;;6.32;2.60;;;15.70;99.90;;;;;;5092599;28;20420;-72
2023/08/07 02:40:33;;;;;;;6.32;2.92;;;15.60;99.90;;;;;;5105200;28;20441;-72
2023/08/07 02:42:59;;;;;;;5.00;2.80;;;15.50;99.90;;;;;;5092453;28;20767;-72
2023/08/07 02:45:24;;;;;;;8.57;2.75;;;15.60;99.90;;;;;;5104750;28;20407;-72
2023/08/07 02:47:50;;;;;;;6.67;2.53;;;15.60;99.90;;;;;;5103552;28;20815;-72
2023/08/07 02:50:16;;;;;;;5.53;2.30;;;15.50;99.90;;;;;;5093765;28;20431;-72
2023/08/07 02:52:41;;;;;;;9.33;2.47;;;15.50;99.90;;;;;;5101862;28;20484;-72
2023/08/07 02:55:07;;;;;;;5.50;2.25;;;15.50;99.90;;;;;;5104138;28;20396;-72
2023/08/07 02:57:33;;;;;;;4.82;1.90;;;15.40;99.90;;;;;;5102953;28;20393;-72
2023/08/07 02:59:58;;;;;;;3.77;2.33;;;15.40;99.90;;;;;;5103793;28;20410;-72
2023/08/07 03:02:24;;;;;;;5.40;2.30;;;15.40;99.90;;;;;;5102289;28;20401;-71
2023/08/07 03:04:50;;;;;;;4.85;1.88;;;15.40;99.90;;;;;;5102955;28;20417;-72
2023/08/07 03:07:15;;;;;;;5.47;2.20;;;15.40;99.90;;;;;;5102611;28;20434;-71
2023/08/07 03:09:41;;;;;;;3.75;1.52;;;15.40;99.90;;;;;;5101529;28;20411;-71
2023/08/07 03:12:07;;;;;;;5.70;1.87;;;15.40;99.90;;;;;;5092874;28;21054;-71
2023/08/07 03:14:32;;;;;;;5.40;1.60;;;15.40;99.90;;;;;;5092277;28;20396;-72
2023/08/07 03:16:58;;;;;;;6.00;1.50;;;15.40;99.90;;;;;;5103268;28;20400;-72
2023/08/07 03:19:24;;;;;;;7.53;1.63;;;15.40;99.90;;;;;;5102534;28;20804;-72
2023/08/07 03:21:49;;;;;;;4.63;1.30;;;15.30;99.90;;;;;;5093000;28;20426;-72
2023/08/07 03:24:15;;;;;;;6.05;1.58;;;15.30;99.90;;;;;;5102449;28;20396;-72
2023/08/07 03:26:41;;;;;;;6.57;1.90;;;15.30;99.90;;;;;;5093317;28;20398;-72
2023/08/07 03:29:06;;;;;;;5.00;1.58;;;15.30;99.90;;;;;;5100206;28;20400;-72
2023/08/07 03:31:32;;;;;;;5.57;1.53;;;15.30;99.90;;;;;;5100833;28;20400;-72
2023/08/07 03:33:58;;;;;;;8.25;1.65;;;15.30;99.90;;;;;;5099759;28;20548;-72
2023/08/07 03:36:23;;;;;;;5.68;1.38;;;15.40;99.90;;;;;;5101146;28;20453;-71
2023/08/07 03:38:49;;;;;;;6.37;1.47;;;15.40;99.90;;;;;;5098622;28;20404;-72
2023/08/07 03:41:15;;;;;;;6.47;1.40;;;15.40;99.90;;;;;;5101672;28;20427;-72
2023/08/07 03:43:40;;;;;;;5.20;1.20;;;15.40;99.90;;;;;;5097149;28;20408;-71
2023/08/07 03:46:06;;;;;;;5.85;1.65;;;15.40;99.90;;;;;;5100098;28;20415;-72
2023/08/07 03:48:32;;;;;;;7.97;1.50;;;15.40;99.90;;;;;;5097739;28;20401;-71
2023/08/07 03:51:05;;;;;;;6.22;1.08;;;15.40;99.90;;;;;;5102019;28;20832;-72
2023/08/07 03:53:31;;;;;;;4.38;0.90;;;15.40;99.90;;;;;;5099474;28;20411;-72
2023/08/07 03:55:56;;;;;;;7.00;1.40;;;15.40;99.90;;;;;;5100175;28;20400;-71
2023/08/07 03:58:22;;;;;;;4.25;1.00;;;15.40;99.90;;;;;;5099977;28;20485;-72
2023/08/07 04:00:47;;;;;;;4.90;1.03;;;15.40;99.90;;;;;;5104093;28;20435;-72
2023/08/07 04:03:13;;;;;;;5.33;1.27;;;15.50;99.90;;;;;;5100430;28;20418;-72
2023/08/07 04:05:38;;;;;;;4.88;1.20;;;15.50;99.90;;;;;;5102127;28;20495;-72
2023/08/07 04:08:04;;;;;;;11.00;1.83;;;15.60;99.90;;;;;;5093192;28;20406;-72
2023/08/07 04:10:30;;;;;;;8.85;2.42;;;15.60;99.90;;;;;;5103335;28;20409;-72
2023/08/07 04:12:55;;;;;;;11.30;2.73;;;15.70;99.90;;;;;;5095167;28;20446;-72
2023/08/07 04:15:21;;;;;;;10.45;2.60;;;15.70;99.90;;;;;;5106828;28;20397;-72
2023/08/07 04:17:46;;;;;;;9.13;2.00;;;15.70;99.90;;;;;;5100571;28;20401;-71
2023/08/07 04:20:12;;;;;;;8.50;2.40;;;15.70;99.90;;;;;;5100928;28;20511;-72
2023/08/07 04:22:38;;;;;;;10.07;2.78;;;15.70;99.90;;;;;;5105342;28;20920;-72
2023/08/07 04:25:03;;;;;;;11.00;3.00;;;15.70;99.90;;;;;;5105602;28;20442;-71
2023/08/07 04:27:29;;;;;;;12.05;3.00;;;15.70;99.90;;;;;;5093690;28;20461;-72
2023/08/07 04:29:55;;;;;;;20.33;3.53;;;15.70;99.90;;;;;;5105352;28;20396;-72
2023/08/07 04:32:20;;;;;;;11.18;3.00;;;15.70;99.90;;;;;;5099734;28;20763;-72
2023/08/07 04:34:46;;;;;;;13.47;2.70;;;15.70;99.90;;;;;;5090034;28;20401;-72
2023/08/07 04:37:11;;;;;;;12.95;3.40;;;15.70;99.90;;;;;;5092066;28;20406;-72
2023/08/07 04:39:37;;;;;;;11.47;2.90;;;15.70;99.90;;;;;;5104746;28;20568;-72
2023/08/07 04:42:03;;;;;;;12.75;3.10;;;15.60;99.90;;;;;;5099867;28;20418;-72
2023/08/07 04:44:29;;;;;;;13.13;3.33;;;15.70;99.90;;;;;;5103960;28;20530;-72
2023/08/07 04:46:54;;;;;;;11.38;2.88;;;15.70;99.90;;;;;;5099130;28;20484;-72
2023/08/07 04:49:20;;;;;;;12.57;2.90;;;15.70;99.90;;;;;;5104098;28;20389;-71
2023/08/07 04:51:45;;;;;;;10.57;2.65;;;15.70;99.90;;;;;;5098857;28;20430;-72
2023/08/07 04:54:11;;;;;;;8.87;2.43;;;15.70;99.90;;;;;;5102962;28;20408;-72
2023/08/07 04:56:37;;;;;;;11.20;2.65;;;15.70;99.90;;;;;;5099346;28;20398;-72
2023/08/07 04:59:03;;;;;;;13.23;3.17;;;15.70;99.90;;;;;;5103213;28;20573;-72
2023/08/07 05:01:28;;;;;;;14.30;3.30;;;15.70;99.90;;;;;;5098730;28;20430;-72
2023/08/07 05:03:54;;;;;;;12.17;3.23;;;15.70;99.90;;;;;;5094454;28;20410;-72
2023/08/07 05:06:19;;;;;;;15.88;3.63;;;15.70;99.90;;;;;;5093618;28;20397;-71
2023/08/07 05:08:45;;;;;;;16.27;2.77;;;15.70;99.90;;;;;;5103571;27;20408;-72
2023/08/07 05:11:11;;;;;;;11.95;3.25;;;15.70;99.90;;;;;;5096085;28;20495;-72
2023/08/07 05:13:36;;;;;;;12.00;2.80;;;15.70;99.90;;;;;;5089715;28;20394;-72
2023/08/07 05:16:02;;;;;;;14.55;2.92;;;15.70;99.90;;;;;;5099869;28;20402;-72
2023/08/07 05:18:28;;;;;;;12.77;2.97;;;15.70;99.90;;;;;;5099754;28;20791;-71
2023/08/07 05:20:53;;;;;;;12.40;2.83;;;15.70;99.90;;;;;;5099282;28;20426;-72
2023/08/07 05:23:19;;;;;;;15.50;3.30;;;15.70;99.90;;;;;;5099459;28;20406;-72
2023/08/07 05:25:46;;;;;;;17.75;3.53;;;15.70;99.90;;;;;;5091469;28;20398;-72
2023/08/07 05:28:12;;;;;;;17.75;3.53;;;15.70;99.90;;;;;;5104583;28;20404;-72
2023/08/07 05:30:38;;;;;;;15.30;3.25;;;15.70;99.90;;;;;;5101129;28;20422;-72
2023/08/07 05:33:04;;;;;;;15.07;3.50;;;15.80;99.90;;;;;;5105364;28;20809;-72
2023/08/07 05:35:29;;;;;;;14.43;3.53;;;15.80;99.90;;;;;;5096539;28;20414;-71
2023/08/07 05:37:55;;;;;;;13.13;3.17;;;15.80;99.90;;;;;;5101438;28;20762;-72
2023/08/07 05:40:20;;;;;;;14.13;3.13;;;15.90;99.90;;;;;;5097638;28;20421;-72
2023/08/07 05:42:46;;;;;;;14.07;2.90;;;15.90;99.90;;;;;;5102601;28;20931;-72
2023/08/07 05:45:12;;;;;;;11.97;2.93;;;15.90;99.90;;;;;;5095732;28;20390;-71
2023/08/07 05:47:37;;;;;;;15.27;2.83;;;15.90;99.90;;;;;;5095192;28;20407;-72
2023/08/07 05:50:03;;;;;;;14.00;2.93;;;16.00;99.90;;;;;;5097016;28;20406;-72
2023/08/07 05:52:29;;;;;;;12.52;3.05;;;15.90;99.90;;;;;;5094996;28;20748;-71
2023/08/07 05:54:54;;;;;;;14.73;2.90;;;15.90;99.90;;;;;;5094558;28;20405;-71
2023/08/07 05:57:20;;;;;;;12.97;3.07;;;15.90;99.90;;;;;;5101949;28;21133;-72
2023/08/07 05:59:46;;;;;;;12.75;3.13;;;15.90;99.90;;;;;;5095225;28;20393;-72
2023/08/07 06:02:11;;;;;;;14.03;3.27;;;16.00;99.90;;;;;;5087662;28;20761;-72
2023/08/07 06:04:38;;;;;;;13.02;3.25;;;16.00;99.90;;;;;;5093700;28;20899;-71
2023/08/07 06:07:04;;;;;;;13.38;2.85;;;16.00;99.90;;;;;;5091505;28;20777;-70
2023/08/07 06:09:30;;;;;;;13.27;3.05;;;16.00;99.90;;;;;;5088808;28;20466;-70
2023/08/07 06:11:56;;;;;;;12.82;3.00;;;15.90;99.90;;;;;;5092765;28;20405;-71
2023/08/07 06:14:21;;;;;;;11.53;3.10;;;15.70;99.90;;;;;;5099374;28;20865;-71
2023/08/07 06:16:47;;;;;;;14.15;3.10;;;15.70;99.90;;;;;;5090219;28;20455;-71
2023/08/07 06:19:13;;;;;;;13.50;2.97;;;15.60;99.90;;;;;;5091049;28;20404;-71
2023/08/07 06:21:39;;;;;;;13.32;3.53;;;15.60;99.90;;;;;;5091381;28;20966;-71
2023/08/07 06:24:04;;;;;;;12.57;2.92;;;15.60;99.90;;;;;;5088931;28;20414;-71
2023/08/07 06:26:30;;;;;;;12.03;3.00;;;15.60;99.90;;;;;;5071770;28;20792;-71
2023/08/07 06:28:55;;;;;;;11.07;2.47;;;15.60;99.90;;;;;;5097455;28;20771;-71
2023/08/07 06:31:21;;;;;;;12.40;2.72;;;15.60;99.90;;;;;;5100265;28;20388;-71
2023/08/07 06:33:47;;;;;;;14.00;2.90;;;15.60;99.90;;;;;;5096110;28;20841;-72
2023/08/07 06:36:13;;;;;;;11.52;2.47;;;15.60;99.90;;;;;;5100673;28;20479;-71
2023/08/07 06:38:38;;;;;;;11.43;2.67;;;15.70;99.90;;;;;;5097044;28;20414;-72
2023/08/07 06:41:04;;;;;;;15.73;3.13;;;15.90;99.90;;;;;;5092165;28;20440;-71
2023/08/07 06:43:30;;;;;;;11.95;2.85;;;16.00;99.90;;;;;;5089728;28;20445;-72
2023/08/07 06:45:56;;;;;;;12.18;3.22;;;16.20;99.90;;;;;;5090078;28;20422;-71
2023/08/07 06:48:22;;;;;;;12.15;2.45;;;16.30;99.90;;;;;;5082673;28;20409;-71
2023/08/07 06:50:51;;;;;;;12.07;2.80;;;16.40;99.90;;;;;;5094082;28;20408;-71
2023/08/07 06:53:17;;;;;;;11.35;2.45;;;16.30;99.90;;;;;;5090227;28;20396;-71
2023/08/07 06:55:43;;;;;;;12.30;2.50;;;16.20;99.90;;;;;;5099738;28;20870;-71
2023/08/07 06:58:09;;;;;;;13.60;2.70;;;16.00;99.90;;;;;;5089128;28;20394;-72
2023/08/07 07:00:35;;;;;;;12.23;3.10;;;15.90;99.90;;;;;;5095770;28;20425;-71
2023/08/07 07:03:02;;;;;;;10.95;2.80;;;15.90;99.90;;;;;;5086225;28;20418;-71
2023/08/07 07:05:28;;;;;;;14.02;3.33;;;15.80;99.90;;;;;;5095931;28;20400;-71
2023/08/07 07:07:54;;;;;;;9.98;2.70;;;15.80;99.90;;;;;;5095508;28;20418;-71
2023/08/07 07:10:20;;;;;;;13.18;3.38;;;15.90;99.90;;;;;;5092755;28;20406;-72
2023/08/07 07:12:46;;;;;;;14.15;3.10;;;16.00;99.90;;;;;;5090063;28;20488;-71
2023/08/07 07:15:13;;;;;;;9.95;2.20;;;16.20;99.90;;;;;;5086764;28;20485;-71
2023/08/07 07:17:38;;;;;;;10.10;2.20;;;16.30;99.90;;;;;;5096533;28;20418;-71
2023/08/07 07:20:05;;;;;;;10.90;2.13;;;16.40;99.90;;;;;;5100995;28;20419;-71
2023/08/07 07:22:31;;;;;;;9.40;1.95;;;16.50;99.90;;;;;;5098884;28;20410;-71
2023/08/07 07:24:56;;;;;;;8.30;1.70;;;16.60;99.90;;;;;;5094550;28;20488;-71
2023/08/07 07:27:22;;;;;;;10.48;1.88;;;16.60;99.90;;;;;;5092437;28;20409;-71
2023/08/07 07:29:48;;;;;;;12.63;1.97;;;16.70;99.90;;;;;;5096266;28;20463;-71
2023/08/07 07:32:14;;;;;;;6.67;1.90;;;16.70;99.90;;;;;;5093479;28;20794;-71
2023/08/07 07:34:40;;;;;;;8.07;2.22;;;16.70;99.90;;;;;;5107922;28;20517;-71
2023/08/07 07:37:06;;;;;;;8.70;1.98;;;16.70;99.90;;;;;;5104356;28;20466;-71
2023/08/07 07:39:31;;;;;;;10.85;2.30;;;16.70;99.90;;;;;;5108227;28;20407;-71
2023/08/07 07:41:57;;;;;;;11.38;2.25;;;16.70;99.90;;;;;;5094260;28;20505;-71
2023/08/07 07:44:22;;;;;;;6.07;1.67;;;16.70;99.90;;;;;;5107206;28;20811;-71
2023/08/07 07:46:48;;;;;;;7.45;1.80;;;16.80;99.90;;;;;;5102255;28;20402;-71
2023/08/07 07:49:14;;;;;;;7.97;1.53;;;16.90;99.90;;;;;;5107012;28;20393;-71
2023/08/07 07:51:40;;;;;;;6.43;1.70;;;16.90;99.90;;;;;;5100399;28;20406;-71
2023/08/07 07:54:06;;;;;;;9.35;1.77;;;17.10;99.90;;;;;;5106555;28;20436;-71
2023/08/07 07:56:31;;;;;;;9.60;2.22;;;17.10;99.90;;;;;;5096333;28;20430;-71
2023/08/07 07:58:57;;;;;;;7.40;1.70;;;17.20;99.90;;;;;;5105325;28;20401;-71
2023/08/07 08:01:23;;;;;;;7.77;1.60;;;17.20;99.90;;;;;;5091367;28;20437;-71
2023/08/07 08:03:49;;;;;;;8.13;1.63;;;17.20;99.90;;;;;;5097476;28;20402;-71
2023/08/07 08:06:14;;;;;;;8.57;2.22;;;17.30;99.90;;;;;;5099711;28;20398;-71
2023/08/07 08:08:42;;;;;;;8.47;2.00;;;17.30;99.90;;;;;;5106282;28;20395;-71
2023/08/07 08:11:08;;;;;;;7.57;1.90;;;17.30;99.90;;;;;;5089898;28;21004;-71
2023/08/07 08:13:35;;;;;;;10.47;1.90;;;17.30;99.90;;;;;;5101025;28;20423;-71
2023/08/07 08:16:01;;;;;;;9.13;2.03;;;17.30;99.90;;;;;;5102732;28;20911;-71
2023/08/07 08:18:26;;;;;;;11.35;2.15;;;17.30;99.90;;;;;;5105846;28;20407;-71
2023/08/07 08:20:53;;;;;;;11.70;2.50;;;17.30;99.90;;;;;;5103025;28;20433;-72
2023/08/07 08:23:19;;;;;;;8.90;1.92;;;17.40;99.90;;;;;;5105738;28;20393;-72
2023/08/07 08:25:45;;;;;;;10.20;2.45;;;17.40;99.90;;;;;;5102305;28;20397;-71
2023/08/07 08:28:10;;;;;;;10.37;2.60;;;17.40;99.90;;;;;;5106634;28;20912;-71
2023/08/07 08:30:36;;;;;;;8.87;2.50;;;17.40;99.90;;;;;;5101218;28;20429;-71
2023/08/07 08:33:01;;;;;;;9.77;2.67;;;17.40;99.90;;;;;;5106423;28;20766;-71
2023/08/07 08:35:27;;;;;;;10.50;2.50;;;17.30;99.90;;;;;;5102387;28;20394;-71
2023/08/07 08:37:53;;;;;;;13.88;2.55;;;17.20;99.90;;;;;;5104656;28;20436;-71
2023/08/07 08:40:19;;;;;;;12.30;2.57;;;17.10;99.90;;;;;;5092013;28;20412;-71
2023/08/07 08:42:45;;;;;;;11.85;2.45;;;17.00;99.90;;;;;;5105506;28;20400;-71
2023/08/07 08:45:13;;;;;;;11.32;2.50;;;17.00;99.90;;;;;;5100073;28;20401;-72
2023/08/07 08:47:40;;;;;;;8.70;2.25;;;17.20;99.90;;;;;;5105460;28;20472;-72
2023/08/07 08:50:14;;;;;;;8.55;1.77;;;17.20;99.90;;;;;;5099741;28;20418;-71
2023/08/07 08:52:44;;;;;;;7.68;2.03;;;16.90;99.90;;;;;;5075430;28;20410;-71
2023/08/07 08:55:11;;;;;;;9.65;2.30;;;16.60;99.90;;;;;;5091387;28;20414;-69
2023/08/07 08:57:38;;;;;;;7.40;2.25;;;16.40;99.90;;;;;;5099064;28;20493;-71
2023/08/07 09:00:20;;;;;;;8.70;2.05;;;16.30;99.90;;;;;;5096692;28;20425;-71
2023/08/07 09:02:47;;;;;;;11.45;2.22;;;16.30;99.90;;;;;;5087079;28;20429;-71
2023/08/07 09:05:16;;;;;;;8.68;1.95;;;16.30;99.90;;;;;;5092311;28;20422;-71
2023/08/07 09:07:42;;;;;;;9.50;2.63;;;16.40;99.90;;;;;;5090389;28;20421;-71
2023/08/07 09:10:12;;;;;;;10.45;2.35;;;16.40;99.90;;;;;;5090911;28;20440;-71
2023/08/07 09:12:42;;;;;;;12.50;2.80;;;16.20;99.90;;;;;;5089217;28;20414;-71
2023/08/07 09:15:11;;;;;;;7.63;2.35;;;16.00;99.90;;;;;;5099017;28;20407;-71
2023/08/07 09:17:40;;;;;;;9.65;2.40;;;15.80;99.90;;;;;;5103270;27;20444;-71
2023/08/07 09:20:13;;;;;;;12.68;2.70;;;15.70;99.90;;;;;;5093583;28;20413;-71
2023/08/07 09:22:42;;;;;;;10.37;2.57;;;15.70;99.90;;;;;;5096130;28;20404;-71
2023/08/07 09:25:09;;;;;;;8.25;2.08;;;15.70;99.90;;;;;;5081677;28;20415;-71
2023/08/07 09:27:38;;;;;;;8.55;2.70;;;15.80;99.90;;;;;;5090073;28;20409;-72
2023/08/07 09:30:10;;;;;;;8.43;2.13;;;15.80;99.90;;;;;;5090936;28;20401;-70
2023/08/07 09:32:36;;;;;;;11.23;2.45;;;15.80;99.90;;;;;;5099446;28;20503;-71
2023/08/07 09:35:04;;;;;;;11.60;2.47;;;15.80;99.90;;;;;;5099932;28;21259;-71
2023/08/07 09:37:30;;;;;;;12.63;2.63;;;15.80;99.90;;;;;;5089553;28;20421;-71
2023/08/07 09:39:57;;;;;;;13.07;2.65;;;16.00;99.90;;;;;;5093099;28;21023;-71
2023/08/07 09:42:22;;;;;;;10.38;2.83;;;16.10;99.90;;;;;;5087252;28;20780;-71
2023/08/07 09:44:48;;;;;;;10.98;2.45;;;16.30;99.90;;;;;;5087520;28;20429;-71
2023/08/07 09:47:18;;;;;;;11.40;2.47;;;16.80;99.90;;;;;;5095453;28;20401;-72
2023/08/07 09:49:45;;;;;;;8.18;1.90;;;17.50;99.90;;;;;;5087274;28;20410;-72
2023/08/07 09:52:15;;;;;;;8.73;1.57;;;18.10;99.90;;;;;;5098351;28;20442;-72
2023/08/07 09:54:41;;;;;;;6.85;1.90;;;18.70;99.90;;;;;;5089204;28;20515;-72
2023/08/07 09:57:07;;;;;;;6.13;1.50;;;19.00;99.90;;;;;;5087563;28;20413;-71
2023/08/07 09:59:34;;;;;;;9.37;1.70;;;19.10;99.90;;;;;;5095074;28;20575;-71
2023/08/07 10:02:04;;;;;;;7.75;1.63;;;19.00;99.90;;;;;;5094583;28;20424;-71
2023/08/07 10:04:30;;;;;;;7.90;1.35;;;18.80;99.90;;;;;;5089445;28;20972;-71
2023/08/07 10:06:56;;;;;;;7.55;1.90;;;18.50;99.90;;;;;;5093533;28;20416;-71
2023/08/07 10:09:22;;;;;;;8.85;1.63;;;18.10;99.90;;;;;;5092926;28;20421;-71
2023/08/07 10:11:49;;;;;;;9.07;2.00;;;17.80;99.90;;;;;;5078921;28;20785;-71
2023/08/07 10:14:16;;;;;;;8.55;2.17;;;17.60;99.90;;;;;;5099705;28;20398;-71
2023/08/07 10:16:42;;;;;;;9.73;2.03;;;17.40;99.90;;;;;;5097234;28;20487;-71
2023/08/07 10:19:08;;;;;;;8.40;2.10;;;17.20;99.90;;;;;;5097310;28;20776;-71
2023/08/07 10:21:37;;;;;;;8.02;2.17;;;17.00;99.90;;;;;;5094838;28;20431;-71
2023/08/07 10:24:07;;;;;;;8.98;2.03;;;17.00;99.90;;;;;;5091146;28;20410;-71
2023/08/07 10:26:35;;;;;;;9.68;2.17;;;17.00;99.90;;;;;;5097353;28;20408;-71
2023/08/07 10:29:05;;;;;;;8.70;1.90;;;17.00;99.90;;;;;;5095888;28;20413;-71
2023/08/07 10:31:33;;;;;;;11.73;2.40;;;16.90;99.90;;;;;;5102256;28;20418;-71
2023/08/07 10:33:59;;;;;;;8.67;1.93;;;16.80;99.90;;;;;;5094130;28;20607;-71
2023/08/07 10:36:35;;;;;;;10.85;2.35;;;16.80;99.90;;;;;;5086528;28;20994;-71
2023/08/07 10:39:12;;;;;;;10.32;2.10;;;16.80;99.90;;;;;;5080184;28;20408;-71
2023/08/07 10:41:44;;;;;;;10.67;3.00;;;16.80;99.90;;;;;;5088946;28;20783;-71
2023/08/07 10:44:25;;;;;;;9.20;2.30;;;16.80;99.90;;;;;;5091343;28;20406;-71
2023/08/07 10:46:56;;;;;;;8.18;1.88;;;16.80;99.90;;;;;;5086712;28;20424;-71
2023/08/07 10:49:37;;;;;;;9.82;2.45;;;16.80;99.90;;;;;;5093293;28;20404;-71
2023/08/07 10:52:17;;;;;;;9.57;1.80;;;16.80;99.90;;;;;;5089205;28;20958;-71
2023/08/07 10:54:49;;;;;;;11.05;1.95;;;16.80;99.90;;;;;;5097045;28;20404;-71
2023/08/07 10:57:18;;;;;;;8.43;1.90;;;16.90;99.90;;;;;;5079397;28;20422;-72
2023/08/07 11:00:04;;;;;;;9.55;1.92;;;17.10;99.90;;;;;;5086186;28;20394;-72
2023/08/07 11:02:30;;;;;;;10.05;2.15;;;17.30;99.90;;;;;;5084769;28;20449;-72
2023/08/07 11:04:56;;;;;;;7.30;1.77;;;17.70;99.90;;;;;;5094470;28;20443;-72
2023/08/07 11:07:27;;;;;;;7.15;1.83;;;17.80;99.90;;;;;;5093608;28;20404;-72
2023/08/07 11:09:53;;;;;;;8.63;1.92;;;17.90;99.90;;;;;;5100408;28;20485;-71
2023/08/07 11:12:20;;;;;;;8.15;2.13;;;18.00;99.90;;;;;;5090235;28;20652;-71
2023/08/07 11:14:45;;;;;;;10.30;2.08;;;18.20;99.90;;;;;;5097629;28;20475;-72
2023/08/07 11:17:12;;;;;;;7.28;1.60;;;18.60;99.90;;;;;;5105372;28;21053;-72
2023/08/07 11:19:38;;;;;;;7.38;1.55;;;19.20;99.90;;;;;;5101221;28;20408;-72
2023/08/07 11:22:04;;;;;;;6.47;1.83;;;19.60;99.90;;;;;;5101941;28;20463;-72
2023/08/07 11:24:30;;;;;;;6.25;1.30;;;20.00;99.90;;;;;;5101113;28;20547;-72
2023/08/07 11:26:57;;;;;;;5.90;1.10;;;20.50;99.90;;;;;;5100257;28;20967;-72
2023/08/07 11:29:24;;;;;;;5.45;1.30;;;20.80;99.50;;;;;;5107693;28;20407;-72
2023/08/07 11:31:51;;;;;;;7.95;1.50;;;20.70;98.50;;;;;;5104071;28;20405;-72
2023/08/07 11:34:20;;;;;;;5.43;1.30;;;20.30;97.00;;;;;;5108510;28;20988;-72
2023/08/07 11:36:46;;;;;;;6.63;1.60;;;20.00;98.70;;;;;;5103544;28;20402;-72
2023/08/07 11:39:13;;;;;;;7.55;1.55;;;19.60;99.00;;;;;;5108132;28;20419;-72
2023/08/07 11:41:40;;;;;;;7.85;1.50;;;19.30;99.60;;;;;;5104910;28;20429;-72
2023/08/07 11:44:08;;;;;;;6.18;1.23;;;19.20;99.90;;;;;;5100087;28;21208;-71
2023/08/07 11:46:34;;;;;;;7.20;1.40;;;19.10;99.20;;;;;;5103056;28;20417;-72
2023/08/07 11:48:59;;;;;;;5.10;1.15;;;19.00;98.80;;;;;;5107875;28;20962;-72
2023/08/07 11:51:26;;;;;;;4.37;1.23;;;19.00;99.10;;;;;;5103974;28;20902;-72
2023/08/07 11:53:56;;;;;;;9.05;1.52;;;18.90;99.30;;;;;;5106424;28;20902;-72
2023/08/07 11:56:22;;;;;;;9.57;1.73;;;19.00;99.80;;;;;;5092953;28;20398;-72
2023/08/07 11:58:48;;;;;;;9.50;1.77;;;19.40;99.90;;;;;;5107094;28;20396;-72
2023/08/07 12:01:24;;;;;;;6.78;2.00;;;19.70;99.90;;;;;;5100900;28;20426;-72
2023/08/07 12:03:55;;;;;;;8.75;1.40;;;19.90;99.90;;;;;;5098721;28;20416;-72
2023/08/07 12:06:22;;;;;;;8.98;1.90;;;20.10;99.90;;;;;;5099108;28;20417;-72
2023/08/07 12:08:51;;;;;;;4.97;0.83;;;20.10;99.80;;;;;;5097877;28;20408;-72
2023/08/07 12:11:17;;;;;;;7.70;1.33;;;20.10;98.20;;;;;;5097704;28;21052;-72
2023/08/07 12:13:44;;;;;;;7.68;1.48;;;19.90;98.80;;;;;;5100046;28;20974;-72
2023/08/07 12:16:15;;;;;;;6.45;1.27;;;20.00;99.50;;;;;;5105857;28;20832;-72
2023/08/07 12:18:47;;;;;;;5.25;1.17;;;20.30;99.90;;;;;;5105681;28;20904;-72
2023/08/07 12:21:23;;;;;;;8.10;1.52;;;20.50;99.90;;;;;;5107378;28;20428;-72
2023/08/07 12:23:49;;;;;;;6.38;1.50;;;20.50;99.90;;;;;;5102606;28;20409;-72
2023/08/07 12:26:16;;;;;;;6.60;1.30;;;20.60;99.60;;;;;;5097710;28;20770;-72
2023/08/07 12:28:41;;;;;;;7.97;1.10;;;20.60;98.90;;;;;;5104945;28;20402;-72
2023/08/07 12:31:07;;;;;;;5.20;0.90;;;20.60;98.50;;;;;;5108153;28;20402;-72
2023/08/07 12:33:33;;;;;;;5.57;1.43;;;20.50;97.30;;;;;;5104333;28;20405;-72
2023/08/07 12:35:59;;;;;;;7.10;1.40;;;20.40;97.80;;;;;;5107562;28;20403;-72
2023/08/07 12:38:26;;;;;;;9.13;1.50;;;20.50;99.10;;;;;;5103381;28;20405;-72
2023/08/07 12:40:51;;;;;;;6.90;1.50;;;20.60;98.90;;;;;;5098035;28;20549;-72